sensor_id;sensor_type;location;lat;lon;timestamp;P1;durP1;ratioP1;P2;durP2;ratioP2
26824;SDS011;14402;48.178;11.566;2024-02-15T00:00:19;2.2;;;1.5;;
26824;SDS011;14402;48.178;11.566;2024-02-15T00:00:51;2.2;;;1.5;;
26824;SDS011;14402;48.178;11.566;2024-02-15T00:01:19;2.2;;;1.4;;
26824;SDS011;14402;48.178;11.566;2024-02-15T00:01:49;2.1;;;1.3;;
26824;SDS011;14402;48.178;11.566;2024-02-15T00:02:19;2.1;;;1.3;;
26824;SDS011;14402;48.178;11.566;2024-02-15T00:02:49;2.1;;;1.3;;
26824;SDS011;14402;48.178;11.566;2024-02-15T00:03:19;2.1;;;1.3;;
26824;SDS011;14402;48.178;11.566;2024-02-15T00:03:49;2.1;;;1.3;;
26824;SDS011;14402;48.178;11.566;2024-02-15T00:04:20;2.1;;;1.3;;
26824;SDS011;14402;48.178;11.566;2024-02-15T00:04:50;2.1;;;1.3;;
26824;SDS011;14402;48.178;11.566;2024-02-15T00:05:20;1.9;;;1.3;;
26824;SDS011;14402;48.178;11.566;2024-02-15T00:05:50;1.7;;;1.3;;
26824;SDS011;14402;48.178;11.566;2024-02-15T00:06:20;1.7;;;1.3;;
26824;SDS011;14402;48.178;11.566;2024-02-15T00:06:50;1.7;;;1.3;;
26824;SDS011;14402;48.178;11.566;2024-02-15T00:07:20;2.0;;;1.2;;
26824;SDS011;14402;48.178;11.566;2024-02-15T00:07:50;2.3;;;1.2;;
26824;SDS011;14402;48.178;11.566;2024-02-15T00:08:20;2.3;;;1.2;;
26824;SDS011;14402;48.178;11.566;2024-02-15T00:08:50;2.3;;;1.2;;
26824;SDS011;14402;48.178;11.566;2024-02-15T00:09:20;2.4;;;1.3;;
26824;SDS011;14402;48.178;11.566;2024-02-15T00:09:50;2.5;;;1.4;;
26824;SDS011;14402;48.178;11.566;2024-02-15T00:10:20;2.5;;;1.4;;
26824;SDS011;14402;48.178;11.566;2024-02-15T00:10:50;2.5;;;1.4;;
26824;SDS011;14402;48.178;11.566;2024-02-15T00:11:20;2.4;;;1.2;;
26824;SDS011;14402;48.178;11.566;2024-02-15T00:11:50;2.3;;;1.1;;
26824;SDS011;14402;48.178;11.566;2024-02-15T00:12:20;2.3;;;1.1;;
26824;SDS011;14402;48.178;11.566;2024-02-15T00:12:50;2.3;;;1.1;;
26824;SDS011;14402;48.178;11.566;2024-02-15T00:13:20;2.0;;;1.2;;
26824;SDS011;14402;48.178;11.566;2024-02-15T00:13:51;1.7;;;1.2;;
26824;SDS011;14402;48.178;11.566;2024-02-15T00:14:21;1.7;;;1.2;;
26824;SDS011;14402;48.178;11.566;2024-02-15T00:14:51;1.7;;;1.2;;
26824;SDS011;14402;48.178;11.566;2024-02-15T00:15:21;2.0;;;1.2;;
26824;SDS011;14402;48.178;11.566;2024-02-15T00:15:51;2.2;;;1.2;;
26824;SDS011;14402;48.178;11.566;2024-02-15T00:16:21;2.2;;;1.2;;
26824;SDS011;14402;48.178;11.566;2024-02-15T00:16:51;2.2;;;1.2;;
26824;SDS011;14402;48.178;11.566;2024-02-15T00:17:22;2.3;;;1.3;;
26824;SDS011;14402;48.178;11.566;2024-02-15T00:17:51;2.5;;;1.4;;
26824;SDS011;14402;48.178;11.566;2024-02-15T00:18:21;2.5;;;1.4;;
26824;SDS011;14402;48.178;11.566;2024-02-15T00:18:51;2.5;;;1.4;;
26824;SDS011;14402;48.178;11.566;2024-02-15T00:19:21;2.4;;;1.3;;
26824;SDS011;14402;48.178;11.566;2024-02-15T00:19:51;2.3;;;1.2;;
26824;SDS011;14402;48.178;11.566;2024-02-15T00:20:21;2.3;;;1.2;;
26824;SDS011;14402;48.178;11.566;2024-02-15T00:20:51;2.3;;;1.2;;
26824;SDS011;14402;48.178;11.566;2024-02-15T00:21:21;2.2;;;1.3;;
26824;SDS011;14402;48.178;11.566;2024-02-15T00:21:51;2.1;;;1.4;;
26824;SDS011;14402;48.178;11.566;2024-02-15T00:22:22;2.1;;;1.4;;
26824;SDS011;14402;48.178;11.566;2024-02-15T00:22:52;2.1;;;1.4;;
26824;SDS011;14402;48.178;11.566;2024-02-15T00:23:22;2.0;;;1.3;;
26824;SDS011;14402;48.178;11.566;2024-02-15T00:23:52;1.9;;;1.3;;
26824;SDS011;14402;48.178;11.566;2024-02-15T00:24:22;1.9;;;1.3;;
26824;SDS011;14402;48.178;11.566;2024-02-15T00:24:52;1.9;;;1.3;;
26824;SDS011;14402;48.178;11.566;2024-02-15T00:25:22;1.8;;;1.2;;
26824;SDS011;14402;48.178;11.566;2024-02-15T00:25:52;1.8;;;1.2;;
26824;SDS011;14402;48.178;11.566;2024-02-15T00:26:22;1.8;;;1.2;;
26824;SDS011;14402;48.178;11.566;2024-02-15T00:26:52;1.8;;;1.2;;
26824;SDS011;14402;48.178;11.566;2024-02-15T00:27:22;2.4;;;1.4;;
26824;SDS011;14402;48.178;11.566;2024-02-15T00:27:52;3.0;;;1.6;;
26824;SDS011;14402;48.178;11.566;2024-02-15T00:28:22;3.0;;;1.6;;
26824;SDS011;14402;48.178;11.566;2024-02-15T00:28:52;3.0;;;1.6;;
26824;SDS011;14402;48.178;11.566;2024-02-15T00:29:22;2.8;;;1.6;;
26824;SDS011;14402;48.178;11.566;2024-02-15T00:29:52;2.6;;;1.6;;
26824;SDS011;14402;48.178;11.566;2024-02-15T00:30:22;2.6;;;1.6;;
26824;SDS011;14402;48.178;11.566;2024-02-15T00:30:53;2.6;;;1.6;;
26824;SDS011;14402;48.178;11.566;2024-02-15T00:31:22;2.5;;;1.6;;
26824;SDS011;14402;48.178;11.566;2024-02-15T00:31:53;2.4;;;1.6;;
26824;SDS011;14402;48.178;11.566;2024-02-15T00:32:23;2.4;;;1.6;;
26824;SDS011;14402;48.178;11.566;2024-02-15T00:32:53;2.4;;;1.6;;
26824;SDS011;14402;48.178;11.566;2024-02-15T00:33:23;3.1;;;1.6;;
26824;SDS011;14402;48.178;11.566;2024-02-15T00:33:53;3.7;;;1.6;;
26824;SDS011;14402;48.178;11.566;2024-02-15T00:34:23;3.7;;;1.6;;
26824;SDS011;14402;48.178;11.566;2024-02-15T00:34:53;3.7;;;1.6;;
26824;SDS011;14402;48.178;11.566;2024-02-15T00:35:23;3.0;;;1.6;;
26824;SDS011;14402;48.178;11.566;2024-02-15T00:35:53;2.2;;;1.6;;
26824;SDS011;14402;48.178;11.566;2024-02-15T00:36:23;2.2;;;1.6;;
26824;SDS011;14402;48.178;11.566;2024-02-15T00:36:53;2.2;;;1.6;;
26824;SDS011;14402;48.178;11.566;2024-02-15T00:37:23;2.6;;;1.7;;
26824;SDS011;14402;48.178;11.566;2024-02-15T00:37:53;2.9;;;1.8;;
26824;SDS011;14402;48.178;11.566;2024-02-15T00:38:23;2.9;;;1.8;;
26824;SDS011;14402;48.178;11.566;2024-02-15T00:38:53;2.9;;;1.8;;
26824;SDS011;14402;48.178;11.566;2024-02-15T00:39:23;3.0;;;1.7;;
26824;SDS011;14402;48.178;11.566;2024-02-15T00:39:54;3.0;;;1.6;;
26824;SDS011;14402;48.178;11.566;2024-02-15T00:40:24;3.0;;;1.6;;
26824;SDS011;14402;48.178;11.566;2024-02-15T00:40:54;3.0;;;1.6;;
26824;SDS011;14402;48.178;11.566;2024-02-15T00:41:24;2.5;;;1.5;;
26824;SDS011;14402;48.178;11.566;2024-02-15T00:41:54;1.9;;;1.4;;
26824;SDS011;14402;48.178;11.566;2024-02-15T00:42:24;1.9;;;1.4;;
26824;SDS011;14402;48.178;11.566;2024-02-15T00:42:54;1.9;;;1.4;;
26824;SDS011;14402;48.178;11.566;2024-02-15T00:43:24;2.1;;;1.3;;
26824;SDS011;14402;48.178;11.566;2024-02-15T00:43:54;2.3;;;1.3;;
26824;SDS011;14402;48.178;11.566;2024-02-15T00:44:24;2.3;;;1.3;;
26824;SDS011;14402;48.178;11.566;2024-02-15T00:44:54;2.3;;;1.3;;
26824;SDS011;14402;48.178;11.566;2024-02-15T00:45:24;4.0;;;1.4;;
26824;SDS011;14402;48.178;11.566;2024-02-15T00:45:54;5.7;;;1.5;;
26824;SDS011;14402;48.178;11.566;2024-02-15T00:46:24;5.7;;;1.5;;
26824;SDS011;14402;48.178;11.566;2024-02-15T00:46:54;5.7;;;1.5;;
26824;SDS011;14402;48.178;11.566;2024-02-15T00:47:24;3.8;;;1.4;;
26824;SDS011;14402;48.178;11.566;2024-02-15T00:47:54;1.9;;;1.3;;
26824;SDS011;14402;48.178;11.566;2024-02-15T00:48:24;1.9;;;1.3;;
26824;SDS011;14402;48.178;11.566;2024-02-15T00:48:55;1.9;;;1.3;;
26824;SDS011;14402;48.178;11.566;2024-02-15T00:49:25;1.8;;;1.3;;
26824;SDS011;14402;48.178;11.566;2024-02-15T00:49:55;1.7;;;1.3;;
26824;SDS011;14402;48.178;11.566;2024-02-15T00:50:25;1.7;;;1.3;;
26824;SDS011;14402;48.178;11.566;2024-02-15T00:50:55;1.7;;;1.3;;
26824;SDS011;14402;48.178;11.566;2024-02-15T00:51:25;1.9;;;1.5;;
26824;SDS011;14402;48.178;11.566;2024-02-15T00:51:55;2.1;;;1.6;;
26824;SDS011;14402;48.178;11.566;2024-02-15T00:52:25;2.1;;;1.6;;
26824;SDS011;14402;48.178;11.566;2024-02-15T00:52:55;2.1;;;1.6;;
26824;SDS011;14402;48.178;11.566;2024-02-15T00:53:25;2.2;;;1.5;;
26824;SDS011;14402;48.178;11.566;2024-02-15T00:53:55;2.4;;;1.4;;
26824;SDS011;14402;48.178;11.566;2024-02-15T00:54:25;2.4;;;1.4;;
26824;SDS011;14402;48.178;11.566;2024-02-15T00:54:55;2.4;;;1.4;;
26824;SDS011;14402;48.178;11.566;2024-02-15T00:55:25;1.9;;;1.3;;
26824;SDS011;14402;48.178;11.566;2024-02-15T00:55:55;1.4;;;1.2;;
26824;SDS011;14402;48.178;11.566;2024-02-15T00:56:25;1.4;;;1.2;;
26824;SDS011;14402;48.178;11.566;2024-02-15T00:56:55;1.4;;;1.2;;
26824;SDS011;14402;48.178;11.566;2024-02-15T00:57:25;1.6;;;1.2;;
26824;SDS011;14402;48.178;11.566;2024-02-15T00:57:56;1.9;;;1.3;;
26824;SDS011;14402;48.178;11.566;2024-02-15T00:58:26;1.9;;;1.3;;
26824;SDS011;14402;48.178;11.566;2024-02-15T00:58:56;1.9;;;1.3;;
26824;SDS011;14402;48.178;11.566;2024-02-15T00:59:26;2.2;;;1.4;;
26824;SDS011;14402;48.178;11.566;2024-02-15T00:59:56;2.5;;;1.5;;
26824;SDS011;14402;48.178;11.566;2024-02-15T01:00:26;2.5;;;1.5;;
26824;SDS011;14402;48.178;11.566;2024-02-15T01:00:56;2.5;;;1.5;;
26824;SDS011;14402;48.178;11.566;2024-02-15T01:01:26;2.0;;;1.4;;
26824;SDS011;14402;48.178;11.566;2024-02-15T01:01:56;1.6;;;1.2;;
26824;SDS011;14402;48.178;11.566;2024-02-15T01:02:26;1.6;;;1.2;;
26824;SDS011;14402;48.178;11.566;2024-02-15T01:02:56;1.6;;;1.2;;
26824;SDS011;14402;48.178;11.566;2024-02-15T01:03:26;1.4;;;1.0;;
26824;SDS011;14402;48.178;11.566;2024-02-15T01:03:56;1.2;;;0.9;;
26824;SDS011;14402;48.178;11.566;2024-02-15T01:04:26;1.2;;;0.9;;
26824;SDS011;14402;48.178;11.566;2024-02-15T01:04:56;1.2;;;0.9;;
26824;SDS011;14402;48.178;11.566;2024-02-15T01:05:27;1.6;;;1.0;;
26824;SDS011;14402;48.178;11.566;2024-02-15T01:05:57;2.0;;;1.2;;
26824;SDS011;14402;48.178;11.566;2024-02-15T01:06:27;2.0;;;1.2;;
26824;SDS011;14402;48.178;11.566;2024-02-15T01:06:57;2.0;;;1.2;;
26824;SDS011;14402;48.178;11.566;2024-02-15T01:07:27;1.9;;;1.2;;
26824;SDS011;14402;48.178;11.566;2024-02-15T01:07:57;1.7;;;1.2;;
26824;SDS011;14402;48.178;11.566;2024-02-15T01:08:27;1.7;;;1.2;;
26824;SDS011;14402;48.178;11.566;2024-02-15T01:08:57;1.7;;;1.2;;
26824;SDS011;14402;48.178;11.566;2024-02-15T01:09:27;2.3;;;1.2;;
26824;SDS011;14402;48.178;11.566;2024-02-15T01:09:57;3.0;;;1.2;;
26824;SDS011;14402;48.178;11.566;2024-02-15T01:10:27;3.0;;;1.2;;
26824;SDS011;14402;48.178;11.566;2024-02-15T01:10:57;3.0;;;1.2;;
26824;SDS011;14402;48.178;11.566;2024-02-15T01:11:27;2.3;;;1.1;;
26824;SDS011;14402;48.178;11.566;2024-02-15T01:11:57;1.6;;;1.0;;
26824;SDS011;14402;48.178;11.566;2024-02-15T01:12:27;1.6;;;1.0;;
26824;SDS011;14402;48.178;11.566;2024-02-15T01:12:57;1.6;;;1.0;;
26824;SDS011;14402;48.178;11.566;2024-02-15T01:13:27;2.3;;;1.0;;
26824;SDS011;14402;48.178;11.566;2024-02-15T01:13:58;3.1;;;1.0;;
26824;SDS011;14402;48.178;11.566;2024-02-15T01:14:28;3.1;;;1.0;;
26824;SDS011;14402;48.178;11.566;2024-02-15T01:14:58;3.1;;;1.0;;
26824;SDS011;14402;48.178;11.566;2024-02-15T01:15:28;2.2;;;0.9;;
26824;SDS011;14402;48.178;11.566;2024-02-15T01:15:58;1.4;;;0.8;;
26824;SDS011;14402;48.178;11.566;2024-02-15T01:16:28;1.4;;;0.8;;
26824;SDS011;14402;48.178;11.566;2024-02-15T01:16:58;1.4;;;0.8;;
26824;SDS011;14402;48.178;11.566;2024-02-15T01:17:29;1.5;;;0.9;;
26824;SDS011;14402;48.178;11.566;2024-02-15T01:17:58;1.5;;;1.0;;
26824;SDS011;14402;48.178;11.566;2024-02-15T01:18:28;1.5;;;1.0;;
26824;SDS011;14402;48.178;11.566;2024-02-15T01:18:58;1.5;;;1.0;;
26824;SDS011;14402;48.178;11.566;2024-02-15T01:19:28;1.4;;;0.9;;
26824;SDS011;14402;48.178;11.566;2024-02-15T01:19:58;1.2;;;0.9;;
26824;SDS011;14402;48.178;11.566;2024-02-15T01:20:28;1.2;;;0.9;;
26824;SDS011;14402;48.178;11.566;2024-02-15T01:20:58;1.2;;;0.9;;
26824;SDS011;14402;48.178;11.566;2024-02-15T01:21:29;1.5;;;1.0;;
26824;SDS011;14402;48.178;11.566;2024-02-15T01:21:59;1.7;;;1.2;;
26824;SDS011;14402;48.178;11.566;2024-02-15T01:22:29;1.7;;;1.2;;
26824;SDS011;14402;48.178;11.566;2024-02-15T01:22:59;1.7;;;1.2;;
26824;SDS011;14402;48.178;11.566;2024-02-15T01:23:29;1.7;;;1.2;;
26824;SDS011;14402;48.178;11.566;2024-02-15T01:23:59;1.7;;;1.2;;
26824;SDS011;14402;48.178;11.566;2024-02-15T01:24:29;1.7;;;1.2;;
26824;SDS011;14402;48.178;11.566;2024-02-15T01:24:59;1.7;;;1.2;;
26824;SDS011;14402;48.178;11.566;2024-02-15T01:25:29;1.9;;;1.2;;
26824;SDS011;14402;48.178;11.566;2024-02-15T01:25:59;2.0;;;1.1;;
26824;SDS011;14402;48.178;11.566;2024-02-15T01:26:29;2.0;;;1.1;;
26824;SDS011;14402;48.178;11.566;2024-02-15T01:26:59;2.0;;;1.1;;
26824;SDS011;14402;48.178;11.566;2024-02-15T01:27:29;2.3;;;1.0;;
26824;SDS011;14402;48.178;11.566;2024-02-15T01:27:59;2.7;;;0.9;;
26824;SDS011;14402;48.178;11.566;2024-02-15T01:28:29;2.7;;;0.9;;
26824;SDS011;14402;48.178;11.566;2024-02-15T01:28:59;2.7;;;0.9;;
26824;SDS011;14402;48.178;11.566;2024-02-15T01:29:29;2.2;;;1.0;;
26824;SDS011;14402;48.178;11.566;2024-02-15T01:29:59;1.6;;;1.1;;
26824;SDS011;14402;48.178;11.566;2024-02-15T01:30:30;1.6;;;1.1;;
26824;SDS011;14402;48.178;11.566;2024-02-15T01:31:00;1.6;;;1.1;;
26824;SDS011;14402;48.178;11.566;2024-02-15T01:31:30;1.5;;;1.1;;
26824;SDS011;14402;48.178;11.566;2024-02-15T01:32:00;1.4;;;1.1;;
26824;SDS011;14402;48.178;11.566;2024-02-15T01:32:30;1.4;;;1.1;;
26824;SDS011;14402;48.178;11.566;2024-02-15T01:33:00;1.4;;;1.1;;
26824;SDS011;14402;48.178;11.566;2024-02-15T01:33:30;1.5;;;1.1;;
26824;SDS011;14402;48.178;11.566;2024-02-15T01:34:00;1.5;;;1.1;;
26824;SDS011;14402;48.178;11.566;2024-02-15T01:34:30;1.5;;;1.1;;
26824;SDS011;14402;48.178;11.566;2024-02-15T01:35:00;1.5;;;1.1;;
26824;SDS011;14402;48.178;11.566;2024-02-15T01:35:30;1.7;;;1.0;;
26824;SDS011;14402;48.178;11.566;2024-02-15T01:36:00;1.9;;;0.8;;
26824;SDS011;14402;48.178;11.566;2024-02-15T01:36:30;1.9;;;0.8;;
26824;SDS011;14402;48.178;11.566;2024-02-15T01:37:00;1.9;;;0.8;;
26824;SDS011;14402;48.178;11.566;2024-02-15T01:37:30;1.6;;;1.0;;
26824;SDS011;14402;48.178;11.566;2024-02-15T01:38:00;1.4;;;1.1;;
26824;SDS011;14402;48.178;11.566;2024-02-15T01:38:31;1.4;;;1.1;;
26824;SDS011;14402;48.178;11.566;2024-02-15T01:39:01;1.4;;;1.1;;
26824;SDS011;14402;48.178;11.566;2024-02-15T01:39:31;1.5;;;1.0;;
26824;SDS011;14402;48.178;11.566;2024-02-15T01:40:01;1.5;;;1.0;;
26824;SDS011;14402;48.178;11.566;2024-02-15T01:40:31;1.5;;;1.0;;
26824;SDS011;14402;48.178;11.566;2024-02-15T01:41:01;1.5;;;1.0;;
26824;SDS011;14402;48.178;11.566;2024-02-15T01:41:31;1.5;;;0.9;;
26824;SDS011;14402;48.178;11.566;2024-02-15T01:42:01;1.5;;;0.9;;
26824;SDS011;14402;48.178;11.566;2024-02-15T01:42:31;1.5;;;0.9;;
26824;SDS011;14402;48.178;11.566;2024-02-15T01:43:01;1.5;;;0.9;;
26824;SDS011;14402;48.178;11.566;2024-02-15T01:43:31;1.5;;;1.0;;
26824;SDS011;14402;48.178;11.566;2024-02-15T01:44:01;1.6;;;1.1;;
26824;SDS011;14402;48.178;11.566;2024-02-15T01:44:31;1.6;;;1.1;;
26824;SDS011;14402;48.178;11.566;2024-02-15T01:45:01;1.6;;;1.1;;
26824;SDS011;14402;48.178;11.566;2024-02-15T01:45:31;1.4;;;1.0;;
26824;SDS011;14402;48.178;11.566;2024-02-15T01:46:02;1.1;;;0.9;;
26824;SDS011;14402;48.178;11.566;2024-02-15T01:46:31;1.1;;;0.9;;
26824;SDS011;14402;48.178;11.566;2024-02-15T01:47:02;1.1;;;0.9;;
26824;SDS011;14402;48.178;11.566;2024-02-15T01:47:32;1.4;;;0.9;;
26824;SDS011;14402;48.178;11.566;2024-02-15T01:48:02;1.7;;;0.9;;
26824;SDS011;14402;48.178;11.566;2024-02-15T01:48:32;1.7;;;0.9;;
26824;SDS011;14402;48.178;11.566;2024-02-15T01:49:02;1.7;;;0.9;;
26824;SDS011;14402;48.178;11.566;2024-02-15T01:49:32;1.8;;;0.9;;
26824;SDS011;14402;48.178;11.566;2024-02-15T01:50:02;1.9;;;1.0;;
26824;SDS011;14402;48.178;11.566;2024-02-15T01:50:32;1.9;;;1.0;;
26824;SDS011;14402;48.178;11.566;2024-02-15T01:51:02;1.9;;;1.0;;
26824;SDS011;14402;48.178;11.566;2024-02-15T01:51:32;1.5;;;0.9;;
26824;SDS011;14402;48.178;11.566;2024-02-15T01:52:02;1.2;;;0.9;;
26824;SDS011;14402;48.178;11.566;2024-02-15T01:52:32;1.2;;;0.9;;
26824;SDS011;14402;48.178;11.566;2024-02-15T01:53:03;1.2;;;0.9;;
26824;SDS011;14402;48.178;11.566;2024-02-15T01:53:32;1.2;;;1.0;;
26824;SDS011;14402;48.178;11.566;2024-02-15T01:54:02;1.2;;;1.1;;
26824;SDS011;14402;48.178;11.566;2024-02-15T01:54:32;1.2;;;1.1;;
26824;SDS011;14402;48.178;11.566;2024-02-15T01:55:03;1.2;;;1.1;;
26824;SDS011;14402;48.178;11.566;2024-02-15T01:55:32;1.5;;;1.1;;
26824;SDS011;14402;48.178;11.566;2024-02-15T01:56:03;1.8;;;1.1;;
26824;SDS011;14402;48.178;11.566;2024-02-15T01:56:33;1.8;;;1.1;;
26824;SDS011;14402;48.178;11.566;2024-02-15T01:57:03;1.8;;;1.1;;
26824;SDS011;14402;48.178;11.566;2024-02-15T01:57:33;2.0;;;1.1;;
26824;SDS011;14402;48.178;11.566;2024-02-15T01:58:03;2.2;;;1.1;;
26824;SDS011;14402;48.178;11.566;2024-02-15T01:58:33;2.2;;;1.1;;
26824;SDS011;14402;48.178;11.566;2024-02-15T01:59:03;2.2;;;1.1;;
26824;SDS011;14402;48.178;11.566;2024-02-15T01:59:33;1.7;;;1.0;;
26824;SDS011;14402;48.178;11.566;2024-02-15T02:00:03;1.2;;;0.9;;
26824;SDS011;14402;48.178;11.566;2024-02-15T02:00:33;1.2;;;0.9;;
26824;SDS011;14402;48.178;11.566;2024-02-15T02:01:03;1.2;;;0.9;;
26824;SDS011;14402;48.178;11.566;2024-02-15T02:01:33;1.2;;;0.9;;
26824;SDS011;14402;48.178;11.566;2024-02-15T02:02:03;1.3;;;1.0;;
26824;SDS011;14402;48.178;11.566;2024-02-15T02:02:33;1.3;;;1.0;;
26824;SDS011;14402;48.178;11.566;2024-02-15T02:03:03;1.3;;;1.0;;
26824;SDS011;14402;48.178;11.566;2024-02-15T02:03:33;1.3;;;0.9;;
26824;SDS011;14402;48.178;11.566;2024-02-15T02:04:04;1.4;;;0.9;;
26824;SDS011;14402;48.178;11.566;2024-02-15T02:04:34;1.4;;;0.9;;
26824;SDS011;14402;48.178;11.566;2024-02-15T02:05:04;1.4;;;0.9;;
26824;SDS011;14402;48.178;11.566;2024-02-15T02:05:34;2.2;;;1.0;;
26824;SDS011;14402;48.178;11.566;2024-02-15T02:06:04;2.9;;;1.2;;
26824;SDS011;14402;48.178;11.566;2024-02-15T02:06:34;2.9;;;1.2;;
26824;SDS011;14402;48.178;11.566;2024-02-15T02:07:04;2.9;;;1.2;;
26824;SDS011;14402;48.178;11.566;2024-02-15T02:07:34;2.3;;;1.2;;
26824;SDS011;14402;48.178;11.566;2024-02-15T02:08:04;1.8;;;1.1;;
26824;SDS011;14402;48.178;11.566;2024-02-15T02:08:34;1.8;;;1.1;;
26824;SDS011;14402;48.178;11.566;2024-02-15T02:09:04;1.8;;;1.1;;
26824;SDS011;14402;48.178;11.566;2024-02-15T02:09:34;1.6;;;1.0;;
26824;SDS011;14402;48.178;11.566;2024-02-15T02:10:05;1.5;;;1.0;;
26824;SDS011;14402;48.178;11.566;2024-02-15T02:10:34;1.5;;;1.0;;
26824;SDS011;14402;48.178;11.566;2024-02-15T02:11:04;1.5;;;1.0;;
26824;SDS011;14402;48.178;11.566;2024-02-15T02:11:34;1.5;;;1.0;;
26824;SDS011;14402;48.178;11.566;2024-02-15T02:12:05;1.5;;;1.0;;
26824;SDS011;14402;48.178;11.566;2024-02-15T02:12:35;1.5;;;1.0;;
26824;SDS011;14402;48.178;11.566;2024-02-15T02:13:05;1.5;;;1.0;;
26824;SDS011;14402;48.178;11.566;2024-02-15T02:13:35;1.6;;;1.0;;
26824;SDS011;14402;48.178;11.566;2024-02-15T02:14:05;1.8;;;1.1;;
26824;SDS011;14402;48.178;11.566;2024-02-15T02:14:35;1.8;;;1.1;;
26824;SDS011;14402;48.178;11.566;2024-02-15T02:15:05;1.8;;;1.1;;
26824;SDS011;14402;48.178;11.566;2024-02-15T02:15:35;1.5;;;1.0;;
26824;SDS011;14402;48.178;11.566;2024-02-15T02:16:21;1.1;;;0.9;;
26824;SDS011;14402;48.178;11.566;2024-02-15T02:16:35;1.1;;;0.9;;
26824;SDS011;14402;48.178;11.566;2024-02-15T02:17:36;1.8;;;1.0;;
26824;SDS011;14402;48.178;11.566;2024-02-15T02:18:05;2.5;;;1.1;;
26824;SDS011;14402;48.178;11.566;2024-02-15T02:18:35;2.5;;;1.1;;
26824;SDS011;14402;48.178;11.566;2024-02-15T02:19:05;2.5;;;1.1;;
26824;SDS011;14402;48.178;11.566;2024-02-15T02:19:35;2.5;;;1.1;;
26824;SDS011;14402;48.178;11.566;2024-02-15T02:20:06;2.5;;;1.1;;
26824;SDS011;14402;48.178;11.566;2024-02-15T02:20:36;2.5;;;1.1;;
26824;SDS011;14402;48.178;11.566;2024-02-15T02:21:06;2.5;;;1.1;;
26824;SDS011;14402;48.178;11.566;2024-02-15T02:21:36;2.3;;;1.0;;
26824;SDS011;14402;48.178;11.566;2024-02-15T02:22:06;2.1;;;0.9;;
26824;SDS011;14402;48.178;11.566;2024-02-15T02:22:36;2.1;;;0.9;;
26824;SDS011;14402;48.178;11.566;2024-02-15T02:23:07;2.1;;;0.9;;
26824;SDS011;14402;48.178;11.566;2024-02-15T02:23:36;1.9;;;1.0;;
26824;SDS011;14402;48.178;11.566;2024-02-15T02:24:08;1.7;;;1.1;;
26824;SDS011;14402;48.178;11.566;2024-02-15T02:24:40;1.7;;;1.1;;
26824;SDS011;14402;48.178;11.566;2024-02-15T02:25:07;1.7;;;1.1;;
26824;SDS011;14402;48.178;11.566;2024-02-15T02:25:36;1.7;;;1.1;;
26824;SDS011;14402;48.178;11.566;2024-02-15T02:26:06;1.7;;;1.1;;
26824;SDS011;14402;48.178;11.566;2024-02-15T02:26:36;1.7;;;1.1;;
26824;SDS011;14402;48.178;11.566;2024-02-15T02:27:07;1.7;;;1.1;;
26824;SDS011;14402;48.178;11.566;2024-02-15T02:27:36;1.6;;;1.0;;
26824;SDS011;14402;48.178;11.566;2024-02-15T02:28:06;1.5;;;1.0;;
26824;SDS011;14402;48.178;11.566;2024-02-15T02:28:37;1.5;;;1.0;;
26824;SDS011;14402;48.178;11.566;2024-02-15T02:29:07;1.5;;;1.0;;
26824;SDS011;14402;48.178;11.566;2024-02-15T02:29:41;1.9;;;1.1;;
26824;SDS011;14402;48.178;11.566;2024-02-15T02:30:12;2.2;;;1.2;;
26824;SDS011;14402;48.178;11.566;2024-02-15T02:30:37;2.2;;;1.2;;
26824;SDS011;14402;48.178;11.566;2024-02-15T02:31:07;2.2;;;1.2;;
26824;SDS011;14402;48.178;11.566;2024-02-15T02:31:37;1.9;;;1.1;;
26824;SDS011;14402;48.178;11.566;2024-02-15T02:32:07;1.6;;;1.0;;
26824;SDS011;14402;48.178;11.566;2024-02-15T02:32:37;1.6;;;1.0;;
26824;SDS011;14402;48.178;11.566;2024-02-15T02:33:10;1.6;;;1.0;;
26824;SDS011;14402;48.178;11.566;2024-02-15T02:33:37;2.2;;;1.1;;
26824;SDS011;14402;48.178;11.566;2024-02-15T02:34:07;2.7;;;1.3;;
26824;SDS011;14402;48.178;11.566;2024-02-15T02:34:37;2.7;;;1.3;;
26824;SDS011;14402;48.178;11.566;2024-02-15T02:35:07;2.7;;;1.3;;
26824;SDS011;14402;48.178;11.566;2024-02-15T02:35:37;2.1;;;1.2;;
26824;SDS011;14402;48.178;11.566;2024-02-15T02:36:07;1.5;;;1.2;;
26824;SDS011;14402;48.178;11.566;2024-02-15T02:36:37;1.5;;;1.2;;
26824;SDS011;14402;48.178;11.566;2024-02-15T02:37:07;1.5;;;1.2;;
26824;SDS011;14402;48.178;11.566;2024-02-15T02:37:38;1.7;;;1.2;;
26824;SDS011;14402;48.178;11.566;2024-02-15T02:38:08;1.9;;;1.2;;
26824;SDS011;14402;48.178;11.566;2024-02-15T02:38:38;1.9;;;1.2;;
26824;SDS011;14402;48.178;11.566;2024-02-15T02:39:08;1.9;;;1.2;;
26824;SDS011;14402;48.178;11.566;2024-02-15T02:39:38;1.9;;;1.2;;
26824;SDS011;14402;48.178;11.566;2024-02-15T02:40:08;1.9;;;1.3;;
26824;SDS011;14402;48.178;11.566;2024-02-15T02:40:38;1.9;;;1.3;;
26824;SDS011;14402;48.178;11.566;2024-02-15T02:41:08;1.9;;;1.3;;
26824;SDS011;14402;48.178;11.566;2024-02-15T02:41:38;1.8;;;1.2;;
26824;SDS011;14402;48.178;11.566;2024-02-15T02:42:08;1.8;;;1.1;;
26824;SDS011;14402;48.178;11.566;2024-02-15T02:42:47;1.8;;;1.1;;
26824;SDS011;14402;48.178;11.566;2024-02-15T02:43:08;1.8;;;1.1;;
26824;SDS011;14402;48.178;11.566;2024-02-15T02:43:39;2.1;;;1.2;;
26824;SDS011;14402;48.178;11.566;2024-02-15T02:44:08;2.4;;;1.3;;
26824;SDS011;14402;48.178;11.566;2024-02-15T02:44:38;2.4;;;1.3;;
26824;SDS011;14402;48.178;11.566;2024-02-15T02:45:08;2.4;;;1.3;;
26824;SDS011;14402;48.178;11.566;2024-02-15T02:45:38;1.9;;;1.1;;
26824;SDS011;14402;48.178;11.566;2024-02-15T02:46:09;1.3;;;1.0;;
26824;SDS011;14402;48.178;11.566;2024-02-15T02:46:39;1.3;;;1.0;;
26824;SDS011;14402;48.178;11.566;2024-02-15T02:47:09;1.3;;;1.0;;
26824;SDS011;14402;48.178;11.566;2024-02-15T02:47:39;3.2;;;1.2;;
26824;SDS011;14402;48.178;11.566;2024-02-15T02:48:09;5.0;;;1.4;;
26824;SDS011;14402;48.178;11.566;2024-02-15T02:48:39;5.0;;;1.4;;
26824;SDS011;14402;48.178;11.566;2024-02-15T02:49:09;5.0;;;1.4;;
26824;SDS011;14402;48.178;11.566;2024-02-15T02:49:39;3.3;;;1.2;;
26824;SDS011;14402;48.178;11.566;2024-02-15T02:50:09;1.6;;;1.0;;
26824;SDS011;14402;48.178;11.566;2024-02-15T02:50:39;1.6;;;1.0;;
26824;SDS011;14402;48.178;11.566;2024-02-15T02:51:09;1.6;;;1.0;;
26824;SDS011;14402;48.178;11.566;2024-02-15T02:51:39;1.8;;;1.2;;
26824;SDS011;14402;48.178;11.566;2024-02-15T02:52:09;2.1;;;1.4;;
26824;SDS011;14402;48.178;11.566;2024-02-15T02:52:39;2.1;;;1.4;;
26824;SDS011;14402;48.178;11.566;2024-02-15T02:53:09;2.1;;;1.4;;
26824;SDS011;14402;48.178;11.566;2024-02-15T02:53:39;2.4;;;1.3;;
26824;SDS011;14402;48.178;11.566;2024-02-15T02:54:10;2.8;;;1.2;;
26824;SDS011;14402;48.178;11.566;2024-02-15T02:54:40;2.8;;;1.2;;
26824;SDS011;14402;48.178;11.566;2024-02-15T02:55:10;2.8;;;1.2;;
26824;SDS011;14402;48.178;11.566;2024-02-15T02:55:40;2.3;;;1.2;;
26824;SDS011;14402;48.178;11.566;2024-02-15T02:56:10;1.8;;;1.1;;
26824;SDS011;14402;48.178;11.566;2024-02-15T02:56:40;1.8;;;1.1;;
26824;SDS011;14402;48.178;11.566;2024-02-15T02:57:10;1.8;;;1.1;;
26824;SDS011;14402;48.178;11.566;2024-02-15T02:57:40;1.8;;;1.1;;
26824;SDS011;14402;48.178;11.566;2024-02-15T02:58:10;1.9;;;1.1;;
26824;SDS011;14402;48.178;11.566;2024-02-15T02:58:40;1.9;;;1.1;;
26824;SDS011;14402;48.178;11.566;2024-02-15T02:59:10;1.9;;;1.1;;
26824;SDS011;14402;48.178;11.566;2024-02-15T02:59:40;1.6;;;1.0;;
26824;SDS011;14402;48.178;11.566;2024-02-15T03:00:11;1.4;;;1.0;;
26824;SDS011;14402;48.178;11.566;2024-02-15T03:00:40;1.4;;;1.0;;
26824;SDS011;14402;48.178;11.566;2024-02-15T03:01:10;1.4;;;1.0;;
26824;SDS011;14402;48.178;11.566;2024-02-15T03:01:40;1.5;;;1.0;;
26824;SDS011;14402;48.178;11.566;2024-02-15T03:02:11;1.7;;;1.1;;
26824;SDS011;14402;48.178;11.566;2024-02-15T03:02:41;1.7;;;1.1;;
26824;SDS011;14402;48.178;11.566;2024-02-15T03:03:11;1.7;;;1.1;;
26824;SDS011;14402;48.178;11.566;2024-02-15T03:03:41;1.9;;;1.0;;
26824;SDS011;14402;48.178;11.566;2024-02-15T03:04:11;2.0;;;1.0;;